マイアミ の空港の天気 - METARとTAF

マイアミ国際空港 ( KMIA / MIA ) - アメリカ フロリダ州マイアミ
飛行場実況気象(Metar)
観測時間01/15 10:53 EST (01/15 15:53 UTC)
風向・風速静穏 0m/s
視程10km以上
天気現象
少しの雲 雲底高度 1220m
全天の8割程度の雲 雲底高度 7620m
気温22.2℃
湿度59%
気圧1015.2hPa
METARKMIA 151553Z 00000KT 10SM FEW040 BKN250 22/14 A2998 RMK AO2 SLP152 T02220139
過去の天気等 Google飛行場航空写真 Wunderground天気予報

過去48時間のMETAR

飛行場予報(TAF)
発表時間: 1/15 10:09 EST (1/15 15:09 UTC)
予報対象時間: 15日10時 EST ~ 16日13時 EST
風向・風速北西 3m/s
視程10km以上
少しの雲 雲底高度 910m
全天の4割程度の雲 雲底高度 1220m
15日13時 EST から
風向・風速西南西 4m/s
視程10km以上
全天の4割程度の雲 雲底高度 1070m
全天の4割程度の雲 雲底高度 3050m
16日3時 EST から
風向・風速西 4m/s
視程10km以上
全天の4割程度の雲 雲底高度 760m
全天の8割程度の雲 雲底高度 1070m
16日7時 EST から
風向・風速北西 6m/s
視程10km以上
全天の4割程度の雲 雲底高度 1520m
全天の8割程度の雲 雲底高度 3050m
KMIA 151509Z 1515/1618 31005KT P6SM FEW030 SCT040
FM151800 24007KT P6SM SCT035 SCT100
FM160800 28008KT P6SM SCT025 BKN035
FM161200 31012KT P6SM SCT050 BKN100